createdAt,value
2018-12-26T00:00:32.842Z,1.00
2018-12-26T00:03:20.896Z,1.00
2018-12-26T00:06:10.510Z,0.90
2018-12-26T00:08:58.543Z,0.90
2018-12-26T00:11:46.495Z,0.90
2018-12-26T00:14:34.532Z,0.90
2018-12-26T00:17:22.554Z,0.80
2018-12-26T00:20:10.515Z,0.90
2018-12-26T00:22:58.443Z,0.90
2018-12-26T00:26:05.968Z,0.90
2018-12-26T00:28:53.931Z,0.80
2018-12-26T00:31:41.963Z,0.80
2018-12-26T00:34:29.958Z,0.80
2018-12-26T00:37:37.355Z,0.80
2018-12-26T00:40:25.323Z,0.70
2018-12-26T00:43:32.698Z,0.70
2018-12-26T00:46:20.692Z,0.70
2018-12-26T00:49:08.651Z,0.70
2018-12-26T00:52:16.065Z,0.70
2018-12-26T00:54:57.467Z,0.70
2018-12-26T00:57:38.791Z,0.70
2018-12-26T01:00:07.774Z,0.70
2018-12-26T01:02:55.739Z,0.70
2018-12-26T01:06:03.152Z,0.70
2018-12-26T01:08:51.109Z,0.60
2018-12-26T01:11:39.121Z,0.70
2018-12-26T01:14:27.083Z,0.70
2018-12-26T01:17:15.087Z,0.60
2018-12-26T01:20:03.034Z,0.60
2018-12-26T01:22:51.139Z,0.60
2018-12-26T01:25:39.148Z,0.60
2018-12-26T01:28:27.123Z,0.60
2018-12-26T01:31:15.199Z,0.60
2018-12-26T01:33:43.970Z,0.60
2018-12-26T01:36:44.725Z,0.60
2018-12-26T01:39:25.833Z,0.50
2018-12-26T01:42:07.137Z,0.50
2018-12-26T01:44:49.142Z,0.50
2018-12-26T01:47:28.722Z,0.40
2018-12-26T01:50:16.684Z,0.40
2018-12-26T01:53:04.677Z,0.40
2018-12-26T01:56:06.050Z,0.40
2018-12-26T01:58:47.725Z,0.30
2018-12-26T02:01:28.901Z,0.30
2018-12-26T02:04:10.777Z,0.30
2018-12-26T02:06:52.633Z,0.20
2018-12-26T02:09:34.454Z,0.10
2018-12-26T02:12:16.230Z,0.20
2018-12-26T02:14:58.314Z,0.20
2018-12-26T02:17:40.082Z,0.10
2018-12-26T02:20:22.067Z,0.10
2018-12-26T02:23:04.020Z,0.10
2018-12-26T02:25:32.987Z,0.10
2018-12-26T02:28:20.995Z,0.10
2018-12-26T02:31:08.984Z,0.20
2018-12-26T02:33:57.013Z,0.10
2018-12-26T02:36:45.047Z,0.10
2018-12-26T02:39:33.075Z,0.10
2018-12-26T02:42:22.720Z,0.10
2018-12-26T02:45:10.810Z,0.00
2018-12-26T02:47:58.926Z,0.00
2018-12-26T02:51:06.415Z,0.00
2018-12-26T02:54:07.747Z,0.10
2018-12-26T02:56:49.785Z,0.00
2018-12-26T02:59:31.779Z,0.00
2018-12-26T03:02:13.382Z,0.00
2018-12-26T03:04:55.252Z,0.00
2018-12-26T03:07:36.561Z,0.00
2018-12-26T03:10:18.297Z,0.00
2018-12-26T03:13:00.281Z,0.00
2018-12-26T03:15:42.302Z,0.00
2018-12-26T03:18:24.227Z,0.00
2018-12-26T03:21:06.164Z,0.10
2018-12-26T03:23:47.348Z,0.20
2018-12-26T03:26:29.275Z,0.20
2018-12-26T03:29:11.610Z,0.30
2018-12-26T03:31:53.473Z,0.40
2018-12-26T03:34:34.945Z,0.40
2018-12-26T03:37:16.937Z,0.40
2018-12-26T03:39:58.555Z,0.40
2018-12-26T03:42:40.123Z,0.30
2018-12-26T03:45:21.839Z,0.20
2018-12-26T03:48:03.334Z,0.20
2018-12-26T03:50:44.560Z,0.20
2018-12-26T03:53:25.853Z,0.20
2018-12-26T03:56:07.267Z,0.10
2018-12-26T03:58:49.165Z,0.10
2018-12-26T04:01:30.732Z,0.10
2018-12-26T04:04:12.752Z,0.10
2018-12-26T04:06:52.458Z,0.10
2018-12-26T04:09:40.451Z,0.10
2018-12-26T04:12:47.903Z,0.00
2018-12-26T04:15:36.165Z,0.10
2018-12-26T04:18:43.649Z,0.10
2018-12-26T04:21:31.671Z,0.10
2018-12-26T04:24:39.094Z,0.10
2018-12-26T04:27:46.493Z,0.10
2018-12-26T04:30:34.522Z,0.10
2018-12-26T04:33:22.645Z,0.10
2018-12-26T04:36:10.610Z,0.20
2018-12-26T04:39:18.023Z,0.40
2018-12-26T04:42:06.047Z,0.50
2018-12-26T04:44:54.170Z,0.50
2018-12-26T04:48:01.582Z,0.60
2018-12-26T04:50:49.546Z,0.60
2018-12-26T04:53:37.562Z,0.70
2018-12-26T04:56:19.061Z,0.80
2018-12-26T04:59:00.101Z,0.90
2018-12-26T05:01:42.243Z,0.90
2018-12-26T05:04:24.310Z,0.90
2018-12-26T05:07:06.055Z,1.00
2018-12-26T05:09:47.174Z,1.10
2018-12-26T05:12:29.066Z,1.10
2018-12-26T05:18:04.987Z,1.20
2018-12-26T05:20:53.060Z,1.20
2018-12-26T05:23:41.071Z,1.30
2018-12-26T05:26:48.489Z,1.30
2018-12-26T05:29:55.888Z,1.40
2018-12-26T05:33:03.299Z,1.40
2018-12-26T05:36:10.727Z,1.50
2018-12-26T05:38:58.698Z,1.60
2018-12-26T05:41:46.731Z,1.60
2018-12-26T05:44:34.670Z,1.60
2018-12-26T05:47:42.091Z,1.60
2018-12-26T05:50:30.093Z,1.70
2018-12-26T05:53:37.494Z,1.70
2018-12-26T05:56:38.794Z,1.70
2018-12-26T05:59:20.662Z,1.80
2018-12-26T06:02:01.895Z,1.80
2018-12-26T06:04:43.952Z,1.80
2018-12-26T06:07:25.330Z,1.80
2018-12-26T06:10:07.392Z,1.80
2018-12-26T06:12:49.460Z,1.80
2018-12-26T06:15:31.267Z,1.90
2018-12-26T06:17:59.937Z,1.90
2018-12-26T06:20:47.875Z,1.90
2018-12-26T06:23:35.816Z,1.90
2018-12-26T06:26:43.223Z,1.90
2018-12-26T06:29:31.225Z,1.90
2018-12-26T06:32:19.181Z,1.90
2018-12-26T06:35:07.217Z,1.90
2018-12-26T06:38:14.621Z,1.90
2018-12-26T06:41:04.286Z,2.00
2018-12-26T06:44:11.722Z,1.90
2018-12-26T06:46:59.982Z,1.90
2018-12-26T06:49:48.017Z,2.00
2018-12-26T06:52:55.399Z,2.00
2018-12-26T06:55:36.647Z,2.00
2018-12-26T06:58:16.247Z,2.00
2018-12-26T07:01:04.196Z,2.00
2018-12-26T07:03:53.756Z,2.00
2018-12-26T07:06:41.858Z,2.00
2018-12-26T07:09:29.813Z,2.10
2018-12-26T07:12:17.766Z,2.00
2018-12-26T07:15:07.330Z,2.00
2018-12-26T07:17:55.287Z,2.00
2018-12-26T07:21:02.683Z,2.10
2018-12-26T07:23:50.643Z,2.10
2018-12-26T07:26:58.056Z,2.20
2018-12-26T07:29:46.004Z,2.20
2018-12-26T07:32:34.110Z,2.20
2018-12-26T07:35:22.119Z,2.10
2018-12-26T07:38:11.705Z,2.10
2018-12-26T07:40:59.756Z,2.10
2018-12-26T07:43:47.711Z,2.20
2018-12-26T07:46:35.667Z,2.20
2018-12-26T07:49:37.270Z,2.30
2018-12-26T07:55:27.930Z,2.30
2018-12-26T07:58:17.662Z,2.30
2018-12-26T08:01:25.961Z,2.40
2018-12-26T08:04:13.997Z,2.40
2018-12-26T08:07:01.931Z,2.40
2018-12-26T08:09:51.535Z,2.40
2018-12-26T08:12:39.555Z,2.50
2018-12-26T08:15:27.534Z,2.40
2018-12-26T08:18:15.630Z,2.40
2018-12-26T08:21:23.084Z,2.50
2018-12-26T08:24:30.503Z,2.50
2018-12-26T08:27:31.932Z,2.50
2018-12-26T08:30:14.041Z,2.50
2018-12-26T08:32:55.242Z,2.60
2018-12-26T08:35:36.453Z,2.60
2018-12-26T08:38:18.331Z,2.60
2018-12-26T08:41:00.174Z,2.60
2018-12-26T08:43:41.480Z,2.70
2018-12-26T08:46:22.817Z,2.80
2018-12-26T08:49:04.395Z,2.80
2018-12-26T08:51:46.355Z,2.80
2018-12-26T08:54:27.649Z,2.80
2018-12-26T08:57:09.424Z,2.90
2018-12-26T08:59:51.415Z,2.90
2018-12-26T09:02:33.342Z,2.90
2018-12-26T09:05:15.160Z,2.90
2018-12-26T09:07:56.495Z,3.00
2018-12-26T09:10:38.069Z,3.00
2018-12-26T09:13:20.016Z,3.00
2018-12-26T09:15:59.667Z,2.90
2018-12-26T09:18:47.611Z,2.90
2018-12-26T09:21:35.579Z,3.00
2018-12-26T09:24:23.607Z,3.00
2018-12-26T09:27:31.088Z,3.00
2018-12-26T09:30:38.541Z,3.10
2018-12-26T09:33:45.931Z,3.10
2018-12-26T09:36:53.468Z,3.10
2018-12-26T09:39:41.493Z,3.10
2018-12-26T09:42:29.443Z,3.10
2018-12-26T09:45:17.455Z,3.20
2018-12-26T09:48:05.459Z,3.30
2018-12-26T09:51:12.882Z,3.20
2018-12-26T09:54:00.972Z,3.30
2018-12-26T09:56:42.635Z,3.30
2018-12-26T09:59:25.218Z,3.30
2018-12-26T10:02:06.754Z,3.40
2018-12-26T10:04:47.937Z,3.40
2018-12-26T10:07:29.682Z,3.50
2018-12-26T10:10:11.317Z,3.50
2018-12-26T10:12:39.931Z,3.50
2018-12-26T10:15:27.960Z,3.50
2018-12-26T10:18:15.944Z,3.50
2018-12-26T10:21:23.361Z,3.60
2018-12-26T10:24:30.774Z,3.60
2018-12-26T10:27:18.732Z,3.70
2018-12-26T10:30:06.768Z,3.60
2018-12-26T10:32:54.876Z,3.60
2018-12-26T10:35:42.915Z,3.70
2018-12-26T10:38:30.865Z,3.80
2018-12-26T10:41:38.276Z,3.80
2018-12-26T10:44:45.699Z,3.90
2018-12-26T10:47:33.635Z,4.00
2018-12-26T10:50:21.756Z,4.20
2018-12-26T10:53:09.702Z,4.20
2018-12-26T10:55:49.411Z,4.10
2018-12-26T10:58:37.355Z,4.00
2018-12-26T11:01:25.463Z,4.00
2018-12-26T11:04:13.403Z,4.00
2018-12-26T11:07:01.369Z,4.00
2018-12-26T11:09:49.351Z,4.10
2018-12-26T11:12:56.749Z,4.10
2018-12-26T11:15:44.726Z,4.10
2018-12-26T11:18:32.741Z,4.20
2018-12-26T11:21:20.699Z,4.20
2018-12-26T11:24:08.700Z,4.30
2018-12-26T11:27:16.110Z,4.30
2018-12-26T11:30:04.143Z,4.40
2018-12-26T11:33:11.573Z,4.30
2018-12-26T11:35:59.527Z,4.30
2018-12-26T11:39:07.024Z,4.30
2018-12-26T11:41:54.976Z,4.20
2018-12-26T11:44:43.016Z,4.20
2018-12-26T11:47:50.448Z,4.20
2018-12-26T11:50:57.967Z,4.20
2018-12-26T11:53:45.950Z,4.20
2018-12-26T11:56:26.991Z,4.20
2018-12-26T11:58:55.711Z,4.30
2018-12-26T12:01:45.344Z,4.30
2018-12-26T12:04:33.355Z,4.40
2018-12-26T12:07:43.583Z,4.50
2018-12-26T12:10:31.532Z,4.50
2018-12-26T12:13:19.578Z,4.50
2018-12-26T12:16:26.984Z,4.50
2018-12-26T12:19:15.042Z,4.50
2018-12-26T12:22:03.149Z,4.40
2018-12-26T12:24:51.213Z,4.40
2018-12-26T12:27:58.686Z,4.40
2018-12-26T12:30:46.658Z,4.40
2018-12-26T12:33:34.747Z,4.50
2018-12-26T12:36:22.762Z,4.60
2018-12-26T12:39:30.192Z,4.70
2018-12-26T12:42:18.117Z,4.80
2018-12-26T12:45:06.094Z,4.80
2018-12-26T12:47:54.147Z,4.90
2018-12-26T12:50:43.731Z,5.00
2018-12-26T12:53:51.219Z,5.10
2018-12-26T12:56:33.326Z,5.20
2018-12-26T12:59:22.379Z,5.30
2018-12-26T13:02:11.333Z,5.20
2018-12-26T13:05:00.630Z,5.20
2018-12-26T13:07:49.554Z,5.20
2018-12-26T13:10:38.469Z,5.30
2018-12-26T13:13:27.536Z,5.30
2018-12-26T13:19:36.323Z,5.30
2018-12-26T13:22:25.176Z,5.30
2018-12-26T13:25:33.539Z,5.20
2018-12-26T13:28:22.471Z,5.20
2018-12-26T13:31:11.332Z,5.20
2018-12-26T13:34:19.602Z,5.20
2018-12-26T13:37:48.628Z,5.20
2018-12-26T13:40:37.498Z,5.20
2018-12-26T13:43:26.700Z,5.30
2018-12-26T13:46:17.197Z,5.40
2018-12-26T13:49:25.550Z,5.40
2018-12-26T13:52:14.486Z,5.40
2018-12-26T13:55:15.054Z,5.50
2018-12-26T13:58:05.562Z,5.50
2018-12-26T14:00:54.431Z,5.40
2018-12-26T14:04:02.695Z,5.30
2018-12-26T14:06:51.570Z,5.30
2018-12-26T14:09:59.839Z,5.30
2018-12-26T14:12:48.700Z,5.30
2018-12-26T14:15:37.604Z,5.30
2018-12-26T14:18:26.456Z,5.30
2018-12-26T14:21:34.735Z,5.20
2018-12-26T14:24:26.219Z,5.20
2018-12-26T14:27:35.190Z,5.20
2018-12-26T14:30:43.461Z,5.20
2018-12-26T14:33:32.394Z,5.20
2018-12-26T14:36:21.222Z,5.20
2018-12-26T14:39:22.961Z,5.20
2018-12-26T14:42:11.959Z,5.30
2018-12-26T14:45:00.963Z,5.30
2018-12-26T14:47:50.082Z,5.40
2018-12-26T14:50:39.102Z,5.30
2018-12-26T14:53:28.254Z,5.30
2018-12-26T14:56:10.812Z,5.30
2018-12-26T14:58:59.784Z,5.30
2018-12-26T15:02:08.122Z,5.20
2018-12-26T15:04:57.056Z,5.20
2018-12-26T15:07:45.916Z,5.20
2018-12-26T15:10:54.235Z,5.20
2018-12-26T15:14:02.651Z,5.20
2018-12-26T15:16:51.692Z,5.10
2018-12-26T15:19:40.728Z,5.20
2018-12-26T15:22:29.655Z,5.20
2018-12-26T15:28:20.582Z,5.10
2018-12-26T15:31:09.557Z,5.10
2018-12-26T15:33:58.400Z,5.10
2018-12-26T15:36:47.346Z,5.10
2018-12-26T15:39:36.187Z,5.10
2018-12-26T15:42:25.134Z,5.10
2018-12-26T15:45:13.960Z,5.20
2018-12-26T15:48:03.376Z,5.10
2018-12-26T15:57:14.389Z,5.10
2018-12-26T16:00:03.821Z,5.10
2018-12-26T16:02:54.382Z,5.00
2018-12-26T16:06:02.648Z,5.00
2018-12-26T16:09:10.940Z,5.00
2018-12-26T16:12:19.488Z,5.00
2018-12-26T16:15:08.562Z,5.10
2018-12-26T16:17:59.048Z,5.00
2018-12-26T16:20:48.108Z,5.00
2018-12-26T16:23:37.214Z,5.00
2018-12-26T16:26:26.250Z,5.10
2018-12-26T16:29:34.542Z,5.10
2018-12-26T16:32:23.667Z,5.10
2018-12-26T16:35:12.567Z,5.10
2018-12-26T16:38:20.940Z,5.10
2018-12-26T16:41:09.867Z,5.00
2018-12-26T16:44:18.155Z,5.00
2018-12-26T16:47:07.126Z,5.00
2018-12-26T16:49:55.984Z,5.10
2018-12-26T16:52:44.905Z,5.10
2018-12-26T16:55:47.147Z,5.10
2018-12-26T16:58:36.005Z,5.10
2018-12-26T17:01:24.922Z,5.10
2018-12-26T17:04:13.967Z,5.20
2018-12-26T17:07:22.339Z,5.10
2018-12-26T17:10:32.096Z,5.10
2018-12-26T17:13:21.135Z,5.10
2018-12-26T17:16:10.135Z,5.10
2018-12-26T17:18:59.167Z,5.20
2018-12-26T17:21:48.032Z,5.20
2018-12-26T17:24:36.974Z,5.20
2018-12-26T17:27:25.836Z,5.10
2018-12-26T17:30:34.143Z,5.10
2018-12-26T17:33:41.688Z,5.10
2018-12-26T17:36:49.193Z,5.20
2018-12-26T17:39:31.215Z,5.30
2018-12-26T17:42:12.404Z,5.30
2018-12-26T17:44:53.769Z,5.30
2018-12-26T17:47:35.138Z,5.40
2018-12-26T17:50:16.267Z,5.40
2018-12-26T17:52:58.251Z,5.30
2018-12-26T17:55:39.768Z,5.30
2018-12-26T17:58:21.788Z,5.20
2018-12-26T18:01:03.016Z,5.20
2018-12-26T18:03:44.992Z,5.20
2018-12-26T18:06:13.627Z,5.20
2018-12-26T18:09:01.604Z,5.10
2018-12-26T18:11:51.470Z,5.20
2018-12-26T18:14:58.912Z,5.20
2018-12-26T18:17:46.898Z,5.10
2018-12-26T18:20:35.179Z,5.10
2018-12-26T18:23:23.286Z,5.10
2018-12-26T18:26:11.299Z,5.00
2018-12-26T18:29:18.757Z,4.90
2018-12-26T18:32:26.218Z,4.80
2018-12-26T18:35:14.487Z,4.70
2018-12-26T18:38:02.475Z,4.60
2018-12-26T18:41:09.945Z,4.60
2018-12-26T18:43:58.063Z,4.40
2018-12-26T18:47:05.473Z,4.30
2018-12-26T18:49:53.538Z,4.20
2018-12-26T18:52:41.517Z,4.10
2018-12-26T18:55:48.978Z,3.90
2018-12-26T18:58:30.699Z,3.80
2018-12-26T19:01:12.633Z,3.80
2018-12-26T19:03:54.261Z,3.70
2018-12-26T19:06:36.351Z,3.60
2018-12-26T19:09:17.667Z,3.60
2018-12-26T19:11:58.853Z,3.50
2018-12-26T19:14:40.964Z,3.50
2018-12-26T19:17:22.511Z,3.40
2018-12-26T19:20:03.747Z,3.40
2018-12-26T19:22:43.578Z,3.40
2018-12-26T19:25:12.275Z,3.40
2018-12-26T19:28:19.692Z,3.40
2018-12-26T19:31:07.803Z,3.40
2018-12-26T19:33:55.854Z,3.40
2018-12-26T19:36:45.502Z,3.50
2018-12-26T19:39:33.508Z,3.40
2018-12-26T19:42:37.470Z,3.50
2018-12-26T19:45:17.968Z,3.50
2018-12-26T19:47:59.695Z,3.50
2018-12-26T19:50:41.681Z,3.50
2018-12-26T19:53:22.937Z,3.50
2018-12-26T19:56:04.011Z,3.50
2018-12-26T19:58:46.201Z,3.50
2018-12-26T20:01:27.548Z,3.50
2018-12-26T20:04:09.595Z,3.50
2018-12-26T20:06:51.504Z,3.40
2018-12-26T20:09:33.585Z,3.50
2018-12-26T20:12:14.691Z,3.40
2018-12-26T20:14:43.464Z,3.30
2018-12-26T20:17:31.427Z,3.20
2018-12-26T20:20:19.655Z,3.30
2018-12-26T20:23:07.630Z,3.20
2018-12-26T20:25:55.648Z,3.30
2018-12-26T20:28:43.602Z,3.30
2018-12-26T20:31:56.858Z,3.30
2018-12-26T20:35:00.280Z,3.30
2018-12-26T20:37:48.256Z,3.30
2018-12-26T20:40:36.358Z,3.30
2018-12-26T20:43:24.359Z,3.30
2018-12-26T20:46:12.474Z,3.30
2018-12-26T20:49:00.527Z,3.30
2018-12-26T20:51:48.488Z,3.30
2018-12-26T20:54:55.890Z,3.30
2018-12-26T20:57:37.288Z,3.40
2018-12-26T21:00:18.759Z,3.40
2018-12-26T21:02:59.890Z,3.40
2018-12-26T21:05:41.583Z,3.40
2018-12-26T21:08:22.732Z,3.40
2018-12-26T21:11:04.235Z,3.40
2018-12-26T21:13:46.245Z,3.40
2018-12-26T21:16:28.031Z,3.40
2018-12-26T21:19:09.347Z,3.40
2018-12-26T21:21:51.390Z,3.30
2018-12-26T21:24:33.391Z,3.30
2018-12-26T21:27:15.192Z,3.30
2018-12-26T21:29:56.786Z,3.30
2018-12-26T21:32:38.476Z,3.30
2018-12-26T21:35:19.652Z,3.30
2018-12-26T21:38:01.415Z,3.30
2018-12-26T21:40:42.943Z,3.20
2018-12-26T21:43:24.341Z,3.20
2018-12-26T21:46:05.463Z,3.20
2018-12-26T21:48:47.368Z,3.20
2018-12-26T21:51:29.066Z,3.10
2018-12-26T21:54:10.987Z,3.20
2018-12-26T21:56:52.140Z,3.10
2018-12-26T21:59:33.776Z,3.10
2018-12-26T22:02:22.226Z,3.10
2018-12-26T22:04:58.223Z,3.10
2018-12-26T22:07:39.915Z,3.10
2018-12-26T22:10:21.923Z,3.00
2018-12-26T22:13:03.667Z,3.00
2018-12-26T22:15:45.344Z,3.10
2018-12-26T22:18:26.568Z,3.10
2018-12-26T22:21:07.798Z,3.10
2018-12-26T22:23:49.765Z,3.10
2018-12-26T22:26:30.854Z,3.10
2018-12-26T22:29:13.209Z,3.10
2018-12-26T22:32:02.042Z,3.10
2018-12-26T22:35:10.327Z,3.20
2018-12-26T22:37:59.295Z,3.20
2018-12-26T22:40:48.305Z,3.20
2018-12-26T22:43:37.172Z,3.20
2018-12-26T22:46:26.042Z,3.20
2018-12-26T22:49:15.021Z,3.20
2018-12-26T22:52:23.336Z,3.30
2018-12-26T22:55:12.207Z,2.90
2018-12-26T22:58:13.735Z,3.30
2018-12-26T23:01:02.675Z,3.30
2018-12-26T23:03:51.517Z,3.40
2018-12-26T23:06:40.442Z,3.40
2018-12-26T23:09:29.286Z,3.40
2018-12-26T23:12:18.150Z,3.40
2018-12-26T23:15:07.101Z,3.40
2018-12-26T23:17:56.030Z,3.40
2018-12-26T23:20:44.875Z,3.40
2018-12-26T23:23:33.735Z,3.30
2018-12-26T23:26:22.607Z,3.30
2018-12-26T23:29:11.634Z,3.30
2018-12-26T23:31:55.488Z,3.30
2018-12-26T23:34:44.337Z,3.30
2018-12-26T23:37:33.276Z,3.30
2018-12-26T23:40:22.318Z,3.40
2018-12-26T23:43:11.181Z,3.30
2018-12-26T23:46:00.033Z,3.30
2018-12-26T23:48:48.914Z,3.40
2018-12-26T23:51:37.908Z,3.40
2018-12-26T23:54:26.851Z,3.40
2018-12-26T23:57:15.703Z,3.30
